createdAt,value
2018-09-12T00:55:26.768Z,1015.38
2018-09-12T03:36:10.069Z,1015.17
2018-09-12T03:37:09.636Z,1015.16
2018-09-12T03:39:33.909Z,1015.09
2018-09-12T03:41:19.058Z,1015.06
2018-09-12T03:42:16.005Z,1015.10
2018-09-12T03:43:15.778Z,1015.08
2018-09-12T03:44:15.749Z,1015.10
2018-09-12T03:45:15.722Z,1015.10
2018-09-12T03:46:15.897Z,1015.15
2018-09-12T03:47:15.671Z,1015.11
2018-09-12T03:48:15.647Z,1015.11
2018-09-12T03:49:15.624Z,1015.14
2018-09-12T03:50:15.590Z,1015.12
2018-09-12T03:51:15.568Z,1015.12
2018-09-12T03:52:15.550Z,1015.15
2018-09-12T03:53:15.511Z,1015.16
2018-09-12T03:54:15.484Z,1015.20
2018-09-12T03:55:15.465Z,1015.22
2018-09-12T03:56:15.432Z,1015.23
2018-09-12T03:57:15.407Z,1015.20
2018-09-12T03:58:15.380Z,1015.22
2018-09-12T03:59:15.353Z,1015.23
2018-09-12T04:00:15.327Z,1015.21
2018-09-12T04:01:15.302Z,1015.19
2018-09-12T04:02:15.274Z,1015.25
2018-09-12T04:03:15.248Z,1015.29
2018-09-12T04:04:15.227Z,1015.30
2018-09-12T04:05:15.386Z,1015.24
2018-09-12T04:06:15.170Z,1015.37
2018-09-12T04:07:15.149Z,1015.17
2018-09-12T04:08:15.120Z,1015.18
2018-09-12T04:09:15.095Z,1015.22
2018-09-12T04:10:15.064Z,1015.13
2018-09-12T04:11:15.441Z,1015.12
2018-09-12T04:12:15.014Z,1015.12
2018-09-12T04:13:14.987Z,1015.14
2018-09-12T04:14:14.964Z,1015.15
2018-09-12T04:15:14.934Z,1015.16
2018-09-12T04:16:14.908Z,1015.16
2018-09-12T04:17:14.882Z,1015.16
2018-09-12T04:18:14.858Z,1015.19
2018-09-12T04:19:14.829Z,1015.13
2018-09-12T04:20:14.803Z,1015.11
2018-09-12T04:21:14.777Z,1015.05
2018-09-12T04:22:14.750Z,1015.03
2018-09-12T04:23:14.734Z,1015.01
2018-09-12T04:24:14.760Z,1015.05
2018-09-12T04:25:14.672Z,1015.04
2018-09-12T04:26:14.650Z,1015.11
2018-09-12T04:27:14.619Z,1015.11
2018-09-12T04:28:14.593Z,1015.07
2018-09-12T04:29:14.567Z,1015.10
2018-09-12T04:30:14.540Z,1015.11
2018-09-12T04:31:14.514Z,1015.09
2018-09-12T04:32:14.490Z,1015.06
2018-09-12T04:33:14.477Z,1015.09
2018-09-12T04:34:14.435Z,1015.09
2018-09-12T04:35:14.425Z,1015.10
2018-09-12T04:36:14.382Z,1015.07
2018-09-12T04:37:14.357Z,1015.05
2018-09-12T04:38:14.330Z,1015.14
2018-09-12T04:39:14.304Z,1015.12
2018-09-12T04:40:14.279Z,1015.08
2018-09-12T04:41:14.256Z,1015.04
2018-09-12T04:42:14.225Z,1014.98
2018-09-12T04:43:14.199Z,1015.06
2018-09-12T04:44:14.176Z,1015.07
2018-09-12T04:45:14.147Z,1015.05
2018-09-12T04:46:14.118Z,1015.12
2018-09-12T04:47:14.093Z,1015.13
2018-09-12T04:48:14.071Z,1015.10
2018-09-12T04:49:14.041Z,1015.18
2018-09-12T04:50:14.018Z,1015.19
2018-09-12T04:51:13.988Z,1015.19
2018-09-12T04:52:13.962Z,1015.27
2018-09-12T04:53:13.936Z,1015.27
2018-09-12T04:54:13.909Z,1015.19
2018-09-12T04:55:13.886Z,1015.20
2018-09-12T04:56:13.877Z,1015.23
2018-09-12T04:57:13.830Z,1015.31
2018-09-12T04:58:13.807Z,1015.36
2018-09-12T04:59:13.777Z,1015.38
2018-09-12T05:00:13.751Z,1015.38
2018-09-12T05:01:13.725Z,1015.35
2018-09-12T05:02:13.732Z,1015.45
2018-09-12T05:03:13.873Z,1015.49
2018-09-12T05:04:13.649Z,1015.53
2018-09-12T05:05:13.619Z,1015.54
2018-09-12T05:06:13.593Z,1015.51
2018-09-12T05:07:13.567Z,1015.53
2018-09-12T05:08:13.546Z,1015.53
2018-09-12T05:09:13.513Z,1015.53
2018-09-12T05:10:13.504Z,1015.46
2018-09-12T05:11:13.459Z,1015.53
2018-09-12T05:12:13.433Z,1015.51
2018-09-12T05:13:13.407Z,1015.50
2018-09-12T05:14:13.380Z,1015.52
2018-09-12T05:15:13.355Z,1015.46
2018-09-12T05:16:13.545Z,1015.43
2018-09-12T05:17:13.509Z,1015.42
2018-09-12T05:18:13.273Z,1015.35
2018-09-12T05:19:13.247Z,1015.40
2018-09-12T05:20:13.230Z,1015.45
2018-09-12T05:21:13.194Z,1015.36
2018-09-12T05:22:13.167Z,1015.46
2018-09-12T05:23:13.145Z,1015.45
2018-09-12T05:24:13.115Z,1015.42
2018-09-12T05:25:13.089Z,1015.44
2018-09-12T05:26:13.069Z,1015.37
2018-09-12T05:27:13.237Z,1015.41
2018-09-12T05:28:13.008Z,1015.37
2018-09-12T05:29:12.982Z,1015.37
2018-09-12T05:30:12.956Z,1015.39
2018-09-12T05:31:12.929Z,1015.39
2018-09-12T05:32:12.902Z,1015.37
2018-09-12T05:33:12.878Z,1015.36
2018-09-12T05:34:12.848Z,1015.31
2018-09-12T05:35:12.824Z,1015.23
2018-09-12T05:36:12.842Z,1015.20
2018-09-12T05:37:12.770Z,1015.09
2018-09-12T05:38:12.743Z,1015.14
2018-09-12T05:39:12.716Z,1015.23
2018-09-12T05:40:12.691Z,1015.24
2018-09-12T05:41:12.663Z,1015.32
2018-09-12T05:42:12.637Z,1015.40
2018-09-12T05:43:13.217Z,1015.40
2018-09-12T05:44:12.593Z,1015.37
2018-09-12T05:45:12.558Z,1015.39
2018-09-12T05:46:12.530Z,1015.41
2018-09-12T05:47:12.507Z,1015.39
2018-09-12T05:48:12.477Z,1015.40
2018-09-12T05:49:12.452Z,1015.45
2018-09-12T05:50:12.512Z,1015.46
2018-09-12T05:51:12.399Z,1015.41
2018-09-12T05:52:12.374Z,1015.43
2018-09-12T05:53:12.346Z,1015.49
2018-09-12T05:54:12.320Z,1015.54
2018-09-12T05:55:12.293Z,1015.57
2018-09-12T05:56:12.270Z,1015.53
2018-09-12T05:57:12.243Z,1015.56
2018-09-12T05:58:12.214Z,1015.53
2018-09-12T05:59:12.187Z,1015.60
2018-09-12T06:00:12.167Z,1015.56
2018-09-12T06:01:12.135Z,1015.58
2018-09-12T06:02:12.112Z,1015.48
2018-09-12T06:03:12.089Z,1015.61
2018-09-12T06:04:12.055Z,1015.57
2018-09-12T06:05:12.031Z,1015.52
2018-09-12T06:06:12.003Z,1015.54
2018-09-12T06:07:12.163Z,1015.55
2018-09-12T06:08:11.951Z,1015.53
2018-09-12T06:09:11.924Z,1015.51
2018-09-12T06:10:11.897Z,1015.56
2018-09-12T06:11:11.872Z,1015.56
2018-09-12T06:12:11.846Z,1015.55
2018-09-12T06:13:11.820Z,1015.59
2018-09-12T06:14:11.861Z,1015.60
2018-09-12T06:15:11.775Z,1015.66
2018-09-12T06:16:11.743Z,1015.65
2018-09-12T06:17:11.715Z,1015.67
2018-09-12T06:18:11.689Z,1015.61
2018-09-12T06:19:11.662Z,1015.67
2018-09-12T06:20:11.634Z,1015.69
2018-09-12T06:21:11.612Z,1015.68
2018-09-12T06:22:11.584Z,1015.71
2018-09-12T06:23:11.558Z,1015.70
2018-09-12T06:24:11.532Z,1015.71
2018-09-12T06:25:11.504Z,1015.71
2018-09-12T06:26:11.477Z,1015.72
2018-09-12T06:27:11.452Z,1015.74
2018-09-12T06:28:11.426Z,1015.72
2018-09-12T06:29:11.401Z,1015.74
2018-09-12T06:30:11.374Z,1015.75
2018-09-12T06:31:11.347Z,1015.80
2018-09-12T06:32:11.321Z,1015.80
2018-09-12T06:33:11.298Z,1015.77
2018-09-12T06:34:11.269Z,1015.75
2018-09-12T06:35:11.244Z,1015.76
2018-09-12T06:36:11.217Z,1015.71
2018-09-12T06:37:11.191Z,1015.77
2018-09-12T06:38:11.214Z,1015.75
2018-09-12T06:39:11.141Z,1015.70
2018-09-12T06:40:11.122Z,1015.80
2018-09-12T06:41:11.091Z,1015.78
2018-09-12T06:42:11.064Z,1015.76
2018-09-12T06:43:11.034Z,1015.81
2018-09-12T06:44:11.014Z,1015.85
2018-09-12T06:45:10.985Z,1015.67
2018-09-12T06:46:10.954Z,1015.65
2018-09-12T06:47:10.934Z,1015.64
2018-09-12T06:48:10.903Z,1015.66
2018-09-12T06:49:10.877Z,1015.65
2018-09-12T06:50:10.849Z,1015.73
2018-09-12T06:51:10.823Z,1015.75
2018-09-12T06:52:10.799Z,1015.71
2018-09-12T06:53:10.772Z,1015.73
2018-09-12T06:54:10.744Z,1015.76
2018-09-12T06:55:10.720Z,1015.77
2018-09-12T06:56:10.692Z,1015.76
2018-09-12T06:57:10.666Z,1015.79
2018-09-12T06:58:10.641Z,1015.76
2018-09-12T06:59:10.614Z,1015.81
2018-09-12T07:00:10.588Z,1015.71
2018-09-12T07:01:10.628Z,1015.77
2018-09-12T07:02:10.536Z,1015.76
2018-09-12T07:03:10.508Z,1015.82
2018-09-12T07:04:10.485Z,1015.73
2018-09-12T07:05:10.457Z,1015.72
2018-09-12T07:06:10.438Z,1015.71
2018-09-12T07:07:10.402Z,1015.72
2018-09-12T07:08:10.379Z,1015.71
2018-09-12T07:09:10.352Z,1015.65
2018-09-12T07:10:10.326Z,1015.68
2018-09-12T07:11:10.302Z,1015.65
2018-09-12T07:12:10.274Z,1015.67
2018-09-12T07:13:10.248Z,1015.66
2018-09-12T07:14:10.308Z,1015.65
2018-09-12T07:15:10.197Z,1015.67
2018-09-12T07:16:10.170Z,1015.66
2018-09-12T07:17:10.144Z,1015.71
2018-09-12T07:18:10.117Z,1015.71
2018-09-12T07:19:10.091Z,1015.63
2018-09-12T07:20:10.067Z,1015.69
2018-09-12T07:21:10.041Z,1015.69
2018-09-12T07:22:10.016Z,1015.73
2018-09-12T07:23:09.991Z,1015.67
2018-09-12T07:24:09.962Z,1015.76
2018-09-12T07:25:09.939Z,1015.73
2018-09-12T07:26:09.911Z,1015.71
2018-09-12T07:27:09.884Z,1015.65
2018-09-12T07:28:09.858Z,1015.76
2018-09-12T07:29:09.832Z,1015.77
2018-09-12T07:30:09.815Z,1015.80
2018-09-12T07:31:09.780Z,1015.78
2018-09-12T07:32:09.756Z,1015.84
2018-09-12T07:33:09.728Z,1015.88
2018-09-12T07:34:09.702Z,1015.97
2018-09-12T07:35:09.677Z,1016.00
2018-09-12T07:36:09.650Z,1016.02
2018-09-12T07:37:09.626Z,1016.06
2018-09-12T07:38:09.600Z,1016.10
2018-09-12T07:39:09.578Z,1016.19
2018-09-12T07:40:09.547Z,1016.24
2018-09-12T07:41:09.521Z,1016.18
2018-09-12T07:42:09.498Z,1016.26
2018-09-12T07:43:09.469Z,1016.30
2018-09-12T07:44:09.443Z,1016.29
2018-09-12T07:45:09.417Z,1016.23
2018-09-12T07:46:09.395Z,1016.22
2018-09-12T07:47:09.368Z,1016.25
2018-09-12T07:48:09.339Z,1016.27
2018-09-12T07:49:09.428Z,1016.28
2018-09-12T07:50:09.287Z,1016.33
2018-09-12T07:51:09.261Z,1016.33
2018-09-12T07:52:09.235Z,1016.36
2018-09-12T07:53:09.210Z,1016.38
2018-09-12T07:54:09.194Z,1016.37
2018-09-12T07:55:09.179Z,1016.35
2018-09-12T07:56:09.520Z,1016.39
2018-09-12T07:57:09.105Z,1016.38
2018-09-12T07:58:09.083Z,1016.38
2018-09-12T07:59:09.084Z,1016.37
2018-09-12T08:00:09.125Z,1016.32
2018-09-12T08:01:09.030Z,1016.36
2018-09-12T08:02:08.975Z,1016.36
2018-09-12T08:03:08.948Z,1016.29
2018-09-12T08:04:08.925Z,1016.31
2018-09-12T08:05:08.938Z,1016.30
2018-09-12T08:06:08.871Z,1016.30
2018-09-12T08:07:08.863Z,1016.31
2018-09-12T08:08:08.863Z,1016.32
2018-09-12T08:09:08.808Z,1016.35
2018-09-12T08:10:08.799Z,1016.38
2018-09-12T08:11:08.741Z,1016.38
2018-09-12T08:12:08.777Z,1016.42
2018-09-12T08:13:08.691Z,1016.42
2018-09-12T08:14:08.665Z,1016.43
2018-09-12T08:15:08.640Z,1016.45
2018-09-12T08:16:08.613Z,1016.46
2018-09-12T08:17:08.588Z,1016.51
2018-09-12T08:18:08.564Z,1016.51
2018-09-12T08:19:08.543Z,1016.53
2018-09-12T08:20:08.514Z,1016.57
2018-09-12T08:21:08.487Z,1016.61
2018-09-12T08:22:08.461Z,1016.63
2018-09-12T08:23:08.434Z,1016.69
2018-09-12T08:24:08.410Z,1016.69
2018-09-12T08:25:08.391Z,1016.66
2018-09-12T08:26:08.369Z,1016.67
2018-09-12T08:27:08.331Z,1016.66
2018-09-12T08:28:08.306Z,1016.70
2018-09-12T08:29:08.281Z,1016.72
2018-09-12T08:30:08.255Z,1016.74
2018-09-12T08:31:08.230Z,1016.78
2018-09-12T08:32:08.414Z,1016.67
2018-09-12T08:33:08.181Z,1016.63
2018-09-12T08:34:08.154Z,1016.66
2018-09-12T08:35:08.129Z,1016.65
2018-09-12T08:36:08.113Z,1016.66
2018-09-12T08:37:08.084Z,1016.66
2018-09-12T08:38:08.056Z,1016.73
2018-09-12T08:39:08.032Z,1016.76
2018-09-12T08:40:08.007Z,1016.81
2018-09-12T08:41:07.981Z,1016.81
2018-09-12T08:42:08.008Z,1016.84
2018-09-12T08:43:07.931Z,1016.81
2018-09-12T08:44:07.910Z,1016.87
2018-09-12T08:45:07.883Z,1016.87
2018-09-12T08:46:07.856Z,1016.87
2018-09-12T08:47:07.832Z,1016.89
2018-09-12T08:48:07.807Z,1016.90
2018-09-12T08:49:07.787Z,1017.01
2018-09-12T08:50:07.765Z,1016.97
2018-09-12T08:51:07.734Z,1016.99
2018-09-12T08:52:07.709Z,1017.04
2018-09-12T08:53:07.685Z,1017.02
2018-09-12T08:54:07.664Z,1016.97
2018-09-12T08:55:07.636Z,1016.97
2018-09-12T08:56:07.612Z,1016.92
2018-09-12T08:57:07.608Z,1017.02
2018-09-12T08:58:07.562Z,1017.07
2018-09-12T08:59:07.546Z,1017.05
2018-09-12T09:00:07.518Z,1017.07
2018-09-12T09:01:07.491Z,1017.15
2018-09-12T09:02:07.469Z,1017.19
2018-09-12T09:03:07.446Z,1017.27
2018-09-12T09:04:07.449Z,1017.23
2018-09-12T09:05:07.394Z,1017.28
2018-09-12T09:06:07.368Z,1017.24
2018-09-12T09:07:07.345Z,1017.30
2018-09-12T09:08:07.362Z,1017.37
2018-09-12T09:09:07.298Z,1017.45
2018-09-12T09:10:07.274Z,1017.40
2018-09-12T09:11:07.254Z,1017.30
2018-09-12T09:12:07.435Z,1017.23
2018-09-12T09:13:07.202Z,1017.10
2018-09-12T09:14:07.179Z,1017.15
2018-09-12T09:15:07.158Z,1017.10
2018-09-12T09:16:07.131Z,1017.13
2018-09-12T09:17:07.115Z,1017.35
2018-09-12T09:18:49.450Z,1017.40
2018-09-12T09:19:49.213Z,1017.26
2018-09-12T09:20:49.187Z,1017.20
2018-09-12T09:21:49.169Z,1017.17
2018-09-12T09:22:49.142Z,1017.25
2018-09-12T09:23:49.124Z,1017.29
2018-09-12T09:24:49.106Z,1017.36
2018-09-12T09:25:49.073Z,1017.26
2018-09-12T09:26:49.048Z,1017.27
2018-09-12T09:27:49.024Z,1017.32
2018-09-12T09:28:49.000Z,1017.32
2018-09-12T09:29:48.980Z,1017.36
2018-09-12T09:30:48.958Z,1017.28
2018-09-12T09:31:48.929Z,1017.28
2018-09-12T09:39:26.292Z,1017.23
2018-09-12T09:40:26.073Z,1017.22
2018-09-12T09:41:26.244Z,1017.33
2018-09-12T09:42:26.018Z,1017.32
2018-09-12T09:43:25.993Z,1017.42
2018-09-12T09:44:25.968Z,1017.45
2018-09-12T09:45:25.990Z,1017.47
2018-09-12T09:46:25.920Z,1017.44
2018-09-12T09:47:25.895Z,1017.44
2018-09-12T09:48:25.993Z,1017.33
2018-09-12T09:49:25.846Z,1017.40
2018-09-12T09:50:25.824Z,1017.40
2018-09-12T09:51:25.802Z,1017.34
2018-09-12T09:52:25.773Z,1017.34
2018-09-12T09:53:25.749Z,1017.33
2018-09-12T09:54:25.730Z,1017.33
2018-09-12T09:55:25.701Z,1017.37
2018-09-12T09:56:25.681Z,1017.30
2018-09-12T09:57:25.652Z,1017.38
2018-09-12T09:58:25.634Z,1017.39
2018-09-12T09:59:25.606Z,1017.27
2018-09-12T10:00:25.657Z,1017.30
2018-09-12T10:01:25.563Z,1017.26
2018-09-12T10:02:25.545Z,1017.25
2018-09-12T10:03:25.510Z,1017.28
2018-09-12T10:04:25.487Z,1017.24
2018-09-12T10:05:25.463Z,1017.24
2018-09-12T10:06:25.444Z,1017.29
2018-09-12T10:07:25.414Z,1017.24
2018-09-12T10:08:25.389Z,1017.24
2018-09-12T10:09:25.367Z,1017.22
2018-09-12T10:10:25.341Z,1017.21
2018-09-12T10:11:25.320Z,1017.19
2018-09-12T10:12:25.294Z,1017.16
2018-09-12T10:13:25.272Z,1017.26
2018-09-12T10:14:25.249Z,1017.26
2018-09-12T10:15:25.222Z,1017.25
2018-09-12T10:16:25.197Z,1017.24
2018-09-12T10:17:25.173Z,1017.25
2018-09-12T10:18:25.159Z,1017.20
2018-09-12T10:19:25.128Z,1017.39
2018-09-12T10:20:25.101Z,1017.35
2018-09-12T10:21:25.076Z,1017.46
2018-09-12T10:22:25.057Z,1017.45
2018-09-12T10:23:25.031Z,1017.52
2018-09-12T10:24:25.140Z,1017.47
2018-09-12T10:25:24.981Z,1017.46
2018-09-12T10:26:24.953Z,1017.51
2018-09-12T10:27:24.929Z,1017.54
2018-09-12T10:28:24.909Z,1017.55
2018-09-12T10:29:24.879Z,1017.57
2018-09-12T10:30:24.857Z,1017.51
2018-09-12T10:31:24.833Z,1017.52
2018-09-12T10:32:24.806Z,1017.54
2018-09-12T10:33:24.781Z,1017.49
2018-09-12T10:34:24.758Z,1017.58
2018-09-12T10:35:24.738Z,1017.55
2018-09-12T10:36:24.709Z,1017.50
2018-09-12T10:37:24.685Z,1017.52
2018-09-12T10:38:24.662Z,1017.49
2018-09-12T10:39:24.636Z,1017.44
2018-09-12T10:40:24.620Z,1017.43
2018-09-12T10:41:24.591Z,1017.51
2018-09-12T10:42:24.567Z,1017.47
2018-09-12T10:43:24.546Z,1017.47
2018-09-12T10:44:24.513Z,1017.38
2018-09-12T10:45:24.496Z,1017.46
2018-09-12T10:46:24.467Z,1017.52
2018-09-12T10:47:24.441Z,1017.47
2018-09-12T10:48:24.415Z,1017.50
2018-09-12T10:49:24.390Z,1017.53
2018-09-12T10:50:24.366Z,1017.57
2018-09-12T10:51:24.341Z,1017.54
2018-09-12T10:52:24.315Z,1017.52
2018-09-12T10:53:24.290Z,1017.50
2018-09-12T10:54:24.271Z,1017.49
2018-09-12T10:55:24.241Z,1017.45
2018-09-12T10:56:24.214Z,1017.51
2018-09-12T10:57:24.189Z,1017.54
2018-09-12T10:58:24.164Z,1017.57
2018-09-12T10:59:24.141Z,1017.62
2018-09-12T11:00:24.117Z,1017.61
2018-09-12T11:01:24.088Z,1017.62
2018-09-12T11:02:24.065Z,1017.64
2018-09-12T11:03:24.739Z,1017.63
2018-09-12T11:04:24.059Z,1017.64
2018-09-12T11:05:23.986Z,1017.76
2018-09-12T11:06:23.961Z,1017.82
2018-09-12T11:07:23.937Z,1017.83
2018-09-12T11:08:23.911Z,1017.91
2018-09-12T11:09:23.884Z,1017.85
2018-09-12T11:10:23.859Z,1017.96
2018-09-12T11:11:23.834Z,1017.96
2018-09-12T11:12:23.809Z,1017.96
2018-09-12T11:13:23.784Z,1017.87
2018-09-12T11:14:23.759Z,1017.96
2018-09-12T11:15:23.819Z,1017.98
2018-09-12T11:16:23.708Z,1017.97
2018-09-12T11:17:23.684Z,1018.01
2018-09-12T11:18:23.659Z,1018.02
2018-09-12T11:19:23.637Z,1018.06
2018-09-12T11:20:23.614Z,1018.13
2018-09-12T11:21:23.584Z,1018.15
2018-09-12T11:22:23.566Z,1018.17
2018-09-12T11:23:23.545Z,1018.08
2018-09-12T11:24:23.510Z,1018.10
2018-09-12T11:25:23.487Z,1018.11
2018-09-12T11:26:23.463Z,1018.15
2018-09-12T11:27:23.438Z,1018.17
2018-09-12T11:28:23.413Z,1018.18
2018-09-12T11:29:23.394Z,1018.16
2018-09-12T11:30:23.364Z,1018.11
2018-09-12T11:31:23.339Z,1018.07
2018-09-12T11:32:23.314Z,1018.12
2018-09-12T11:33:23.294Z,1018.02
2018-09-12T11:34:23.332Z,1018.09
2018-09-12T11:35:23.445Z,1018.20
2018-09-12T11:42:36.283Z,1018.01
2018-09-12T11:43:36.058Z,1018.11
2018-09-12T11:47:35.964Z,1018.10
2018-09-12T11:48:35.940Z,1018.06
2018-09-12T11:49:35.919Z,1017.99
2018-09-12T11:50:35.906Z,1018.03
2018-09-12T11:51:35.871Z,1018.06
2018-09-12T11:52:35.848Z,1018.02
2018-09-12T11:53:35.827Z,1017.98
2018-09-12T11:54:35.802Z,1017.99
2018-09-12T11:55:35.837Z,1018.06
2018-09-12T11:56:35.754Z,1018.07
2018-09-12T11:57:35.732Z,1018.12
2018-09-12T11:58:35.709Z,1018.09
2018-09-12T11:59:35.687Z,1018.17
2018-09-12T12:00:35.662Z,1018.15
2018-09-12T12:01:35.656Z,1018.22
2018-09-12T12:02:35.616Z,1018.28
2018-09-12T12:03:35.590Z,1018.27
2018-09-12T12:04:35.577Z,1018.21
2018-09-12T12:05:35.546Z,1018.28
2018-09-12T12:06:35.528Z,1018.32
2018-09-12T12:07:35.501Z,1018.29
2018-09-12T12:08:35.477Z,1018.21
2018-09-12T12:09:35.457Z,1018.21
2018-09-12T12:10:35.431Z,1018.16
2018-09-12T12:11:35.406Z,1018.14
2018-09-12T12:12:35.384Z,1018.17
2018-09-12T12:13:35.369Z,1018.18
2018-09-12T12:14:35.351Z,1018.20
2018-09-12T12:15:35.319Z,1018.17
2018-09-12T12:16:35.337Z,1018.23
2018-09-12T12:17:35.269Z,1018.42
2018-09-12T12:18:35.246Z,1018.34
2018-09-12T12:19:35.220Z,1018.25
2018-09-12T12:20:35.200Z,1018.18
2018-09-12T12:21:35.176Z,1018.17
2018-09-12T12:22:35.159Z,1018.24
2018-09-12T12:23:35.126Z,1018.30
2018-09-12T12:24:35.103Z,1018.35
2018-09-12T12:25:35.086Z,1018.37
2018-09-12T12:26:35.057Z,1018.32
2018-09-12T12:27:35.034Z,1018.32
2018-09-12T12:28:35.008Z,1018.35
2018-09-12T12:29:34.989Z,1018.31
2018-09-12T12:30:34.963Z,1018.26
2018-09-12T12:31:34.938Z,1018.32
2018-09-12T12:32:34.915Z,1018.35
2018-09-12T12:33:34.895Z,1018.37
2018-09-12T12:34:34.866Z,1018.35
2018-09-12T12:35:34.937Z,1018.39
2018-09-12T12:36:34.821Z,1018.23
2018-09-12T12:37:34.793Z,1018.18
2018-09-12T12:38:34.773Z,1018.23
2018-09-12T12:39:45.621Z,1018.22
2018-09-12T12:51:36.336Z,1018.56
2018-09-12T12:52:36.311Z,1018.59
2018-09-12T12:53:36.084Z,1018.70
2018-09-12T12:54:36.059Z,1018.64
2018-09-12T12:55:36.035Z,1018.77
2018-09-12T12:56:36.009Z,1018.79
2018-09-12T12:57:36.187Z,1018.82
2018-09-12T14:06:51.119Z,1018.88
2018-09-12T14:07:50.834Z,1018.95
2018-09-12T14:08:50.820Z,1018.94
2018-09-12T14:09:50.787Z,1019.01
2018-09-12T14:10:50.758Z,1019.06
2018-09-12T14:11:50.729Z,1019.08
2018-09-12T14:12:50.706Z,1019.13
2018-09-12T14:13:50.683Z,1019.16
2018-09-12T14:14:50.654Z,1019.19
2018-09-12T14:15:50.630Z,1019.27
2018-09-12T14:16:50.602Z,1019.24
2018-09-12T14:17:50.578Z,1019.16
2018-09-12T14:18:50.553Z,1019.07
2018-09-12T14:19:50.526Z,1019.07
2018-09-12T14:20:50.501Z,1019.12
2018-09-12T14:21:50.481Z,1019.15
2018-09-12T14:22:50.751Z,1019.15
2018-09-12T14:23:50.426Z,1019.12
2018-09-12T14:24:50.406Z,1019.14
2018-09-12T14:25:50.377Z,1019.16
2018-09-12T14:26:50.351Z,1019.12
2018-09-12T14:27:50.333Z,1019.12
2018-09-12T14:28:50.310Z,1019.04
2018-09-12T14:29:50.276Z,1019.06
2018-09-12T14:30:50.254Z,1019.05
2018-09-12T14:31:50.235Z,1019.08
2018-09-12T14:32:50.208Z,1019.06
2018-09-12T14:33:50.188Z,1019.13
2018-09-12T14:34:50.152Z,1019.11
2018-09-12T14:35:50.129Z,1019.10
2018-09-12T14:36:50.102Z,1019.13
2018-09-12T14:37:50.076Z,1019.13
2018-09-12T14:38:50.082Z,1019.09
2018-09-12T14:39:50.027Z,1019.07
2018-09-12T14:40:50.001Z,1019.11
2018-09-12T14:41:49.993Z,1019.10
2018-09-12T14:42:49.952Z,1019.14
2018-09-12T15:04:54.657Z,1019.15
2018-09-12T15:05:54.401Z,1019.17
2018-09-12T15:06:54.385Z,1019.13
2018-09-12T15:07:54.349Z,1019.19
2018-09-12T15:08:54.323Z,1019.18
2018-09-12T15:09:54.296Z,1019.21
2018-09-12T15:10:54.274Z,1019.19
2018-09-12T15:11:54.245Z,1019.20
2018-09-12T15:12:54.221Z,1019.27
2018-09-12T15:13:54.196Z,1019.22
2018-09-12T15:14:54.183Z,1019.24
2018-09-12T15:15:54.146Z,1019.22
2018-09-12T15:16:54.136Z,1019.23
2018-09-12T15:17:54.092Z,1019.27
2018-09-12T15:18:54.069Z,1019.18
2018-09-12T15:19:54.045Z,1019.23
2018-09-12T15:20:54.018Z,1019.20
2018-09-12T15:21:53.993Z,1019.22
2018-09-12T15:22:54.473Z,1019.17
2018-09-12T15:23:53.944Z,1019.14
2018-09-12T15:24:54.125Z,1019.09
2018-09-12T15:25:53.895Z,1019.10
2018-09-12T15:26:53.894Z,1019.07
2018-09-12T15:27:53.843Z,1019.10
2018-09-12T15:28:53.826Z,1019.13
2018-09-12T15:29:53.794Z,1019.10
2018-09-12T15:44:56.972Z,1019.21
2018-09-12T15:45:56.742Z,1019.24
2018-09-12T15:46:56.715Z,1019.24
2018-09-12T15:47:56.690Z,1019.24
2018-09-12T15:48:56.666Z,1019.19
2018-09-12T15:49:56.640Z,1019.20
2018-09-12T15:50:56.657Z,1019.20
2018-09-12T15:51:56.791Z,1019.12
2018-09-12T15:52:56.564Z,1019.12
2018-09-12T15:53:56.537Z,1019.12
2018-09-12T15:54:56.521Z,1019.12
2018-09-12T15:55:56.487Z,1019.17
2018-09-12T15:56:56.462Z,1019.15
2018-09-12T15:57:56.538Z,1019.15
2018-09-12T15:58:56.413Z,1019.12
2018-09-12T15:59:56.391Z,1019.13
2018-09-12T16:00:56.364Z,1019.09
2018-09-12T16:01:56.335Z,1019.13
2018-09-12T16:02:56.310Z,1019.12
2018-09-12T16:03:56.416Z,1019.12
2018-09-12T16:04:56.261Z,1019.10
2018-09-12T16:05:56.233Z,1019.08
2018-09-12T16:06:56.216Z,1019.06
2018-09-12T16:07:56.186Z,1019.10
2018-09-12T16:08:56.161Z,1019.09
2018-09-12T16:09:56.135Z,1019.08
2018-09-12T16:10:56.112Z,1019.11
2018-09-12T16:11:56.088Z,1019.13
2018-09-12T16:12:56.059Z,1019.06
2018-09-12T16:13:56.032Z,1019.12
2018-09-12T16:14:56.007Z,1019.18
2018-09-12T16:15:55.981Z,1019.18
2018-09-12T16:16:56.007Z,1019.17
2018-09-12T16:17:55.931Z,1019.15
2018-09-12T16:18:55.905Z,1019.25
2018-09-12T16:19:55.880Z,1019.26
2018-09-12T16:20:55.917Z,1019.22
2018-09-12T16:21:55.832Z,1019.24
2018-09-12T16:22:55.823Z,1019.18
2018-09-12T16:24:38.141Z,1019.07
2018-09-12T16:25:37.903Z,1019.21
2018-09-12T16:26:37.878Z,1019.24
2018-09-12T16:27:37.854Z,1019.14
2018-09-12T16:28:37.827Z,1019.12
2018-09-12T16:29:37.803Z,1019.08
2018-09-12T16:30:37.775Z,1019.08
2018-09-12T16:31:37.750Z,1019.13
2018-09-12T16:32:37.799Z,1019.12
2018-09-12T16:33:37.698Z,1019.11
2018-09-12T16:34:37.676Z,1019.12
2018-09-12T16:35:37.647Z,1019.13
2018-09-12T16:36:37.621Z,1019.15
2018-09-12T16:37:37.596Z,1019.18
2018-09-12T16:38:37.570Z,1019.11
2018-09-12T16:39:37.544Z,1019.07
2018-09-12T16:40:37.519Z,1019.05
2018-09-12T16:41:37.493Z,1019.02
2018-09-12T16:42:37.467Z,1019.04
2018-09-12T16:43:37.442Z,1019.04
2018-09-12T16:44:37.416Z,1019.06
2018-09-12T16:45:37.388Z,1019.04
2018-09-12T16:46:37.364Z,1019.03
2018-09-12T16:47:37.354Z,1018.96
2018-09-12T16:48:37.516Z,1018.96
2018-09-12T16:49:37.289Z,1018.96
2018-09-12T16:50:37.276Z,1018.94
2018-09-12T16:51:37.391Z,1018.93
2018-09-12T16:52:37.209Z,1018.94
2018-09-12T16:53:37.183Z,1018.90
2018-09-12T16:54:37.162Z,1018.91
2018-09-12T16:55:37.137Z,1018.90
2018-09-12T16:56:37.134Z,1018.91
2018-09-12T16:57:37.081Z,1018.94
2018-09-12T16:58:37.055Z,1018.95
2018-09-12T16:59:37.030Z,1018.96
2018-09-12T17:00:37.004Z,1018.98
2018-09-12T17:01:36.977Z,1018.96
2018-09-12T17:02:36.984Z,1018.95
2018-09-12T17:03:36.927Z,1018.96
2018-09-12T17:04:36.903Z,1018.97
2018-09-12T17:05:36.875Z,1018.91
2018-09-12T17:06:36.849Z,1018.95
2018-09-12T17:07:36.823Z,1018.96
2018-09-12T17:08:36.796Z,1018.96
2018-09-12T17:09:36.770Z,1018.98
2018-09-12T17:10:36.746Z,1018.97
2018-09-12T17:11:36.722Z,1019.03
2018-09-12T17:12:36.896Z,1019.00
2018-09-12T17:13:36.667Z,1019.05
2018-09-12T17:14:36.642Z,1019.04
2018-09-12T17:15:36.617Z,1019.05
2018-09-12T17:16:36.793Z,1019.03
2018-09-12T17:17:36.565Z,1019.04
2018-09-12T17:18:36.541Z,1019.07
2018-09-12T17:19:36.512Z,1019.07
2018-09-12T17:20:36.500Z,1019.09
2018-09-12T17:21:36.481Z,1019.19
2018-09-12T17:22:36.435Z,1019.16
2018-09-12T17:23:36.408Z,1019.09
2018-09-12T17:24:36.584Z,1019.04
2018-09-12T17:25:36.356Z,1019.09
2018-09-12T17:26:36.331Z,1019.09
2018-09-12T17:27:36.305Z,1019.12
2018-09-12T17:37:02.274Z,1019.24
2018-09-12T17:38:02.049Z,1019.21
2018-09-12T17:39:02.018Z,1019.17
2018-09-12T17:40:01.991Z,1019.18
2018-09-12T17:41:01.965Z,1019.17
2018-09-12T17:42:01.936Z,1019.21
2018-09-12T17:43:01.913Z,1019.22
2018-09-12T17:44:01.885Z,1019.21
2018-09-12T17:45:01.861Z,1019.19
2018-09-12T17:46:01.833Z,1019.22
2018-09-12T17:47:01.809Z,1019.24
2018-09-12T17:48:01.780Z,1019.22
2018-09-12T17:49:01.758Z,1019.26
2018-09-12T17:50:01.727Z,1019.26
2018-09-12T17:51:01.705Z,1019.33
2018-09-12T17:52:01.679Z,1019.28
2018-09-12T17:53:01.648Z,1019.31
2018-09-12T17:54:01.622Z,1019.32
2018-09-12T17:55:01.604Z,1019.33
2018-09-12T17:56:01.573Z,1019.34
2018-09-12T17:57:01.547Z,1019.36
2018-09-12T17:58:01.519Z,1019.39
2018-09-12T17:59:01.490Z,1019.40
2018-09-12T18:00:01.464Z,1019.41
2018-09-12T18:01:01.438Z,1019.44
2018-09-12T18:02:01.411Z,1019.45